Terminal Aerodrome Forecast
Issued by NWS Atlanta, GA

Home | Current Version | Previous Version | Text Only | Print | Product List | Glossary On
Versions: 1 2 3 4 5 6 7 8 9 10 11 12 13 14 15 16 17 18 19 20 21 22 23 24 25 26 27 28 29 30 31 32 33 34 35 36 37 38 39 40 41 42 43 44
332
FTUS42 KFFC 242140 AAB
TAFATL
TAF AMD
KATL 242140Z 2422/2524 21012G20KT P6SM SCT050
     FM250200 19008KT P6SM SCT050 BKN250
     FM250600 20008KT P6SM OVC100
     FM251100 21012G18KT P6SM VCSH BKN025
     FM251600 25011KT 5SM SHRA OVC015 PROB30 2516/2520 4SM TSRA
      BKN020CB
     FM252000 28009KT 5SM -SHRA OVC015=

USA.gov is the U.S. government's official web portal to all federal, state and local government web resources and services.